createdAt,value
2022-11-29T00:01:03.095Z,8.49
2022-11-29T00:03:31.390Z,8.52
2022-11-29T00:06:07.049Z,8.54
2022-11-29T00:08:35.282Z,8.42
2022-11-29T00:11:06.643Z,8.42
2022-11-29T00:13:35.690Z,8.36
2022-11-29T00:16:05.310Z,8.29
2022-11-29T00:18:33.158Z,8.29
2022-11-29T00:21:01.222Z,8.43
2022-11-29T00:23:28.845Z,8.68
2022-11-29T00:25:56.493Z,8.87
2022-11-29T00:28:24.135Z,8.86
2022-11-29T00:30:53.321Z,8.76
2022-11-29T00:33:21.041Z,8.74
2022-11-29T00:35:48.714Z,8.57
2022-11-29T00:38:16.361Z,8.37
2022-11-29T00:40:43.967Z,8.21
2022-11-29T00:43:11.575Z,8.11
2022-11-29T00:45:39.282Z,8.15
2022-11-29T00:48:08.416Z,8.21
2022-11-29T00:50:36.022Z,8.49
2022-11-29T00:53:03.723Z,8.43
2022-11-29T00:55:32.448Z,8.56
2022-11-29T00:58:00.255Z,8.59
2022-11-29T01:00:28.151Z,8.59
2022-11-29T01:02:55.804Z,8.59
2022-11-29T01:05:25.032Z,8.68
2022-11-29T01:07:52.692Z,8.79
2022-11-29T01:10:20.657Z,8.79
2022-11-29T01:12:48.354Z,8.69
2022-11-29T01:15:16.107Z,8.88
2022-11-29T01:17:43.680Z,8.82
2022-11-29T01:20:13.445Z,8.92
2022-11-29T01:22:42.459Z,8.89
2022-11-29T01:25:12.482Z,8.71
2022-11-29T01:27:40.440Z,8.75
2022-11-29T01:30:11.073Z,8.74
2022-11-29T01:32:39.162Z,8.81
2022-11-29T01:35:07.828Z,8.73
2022-11-29T01:37:35.504Z,8.74
2022-11-29T01:40:05.374Z,8.65
2022-11-29T01:42:33.248Z,8.68
2022-11-29T01:45:08.204Z,8.56
2022-11-29T01:47:47.344Z,8.62
2022-11-29T01:50:15.300Z,8.85
2022-11-29T01:52:43.173Z,8.72
2022-11-29T01:55:13.351Z,8.77
2022-11-29T01:57:42.517Z,8.84
2022-11-29T02:00:12.886Z,8.83
2022-11-29T02:02:43.557Z,8.74
2022-11-29T02:05:13.643Z,8.66
2022-11-29T02:07:44.544Z,8.57
2022-11-29T02:10:16.458Z,8.54
2022-11-29T02:12:59.941Z,8.75
2022-11-29T02:15:40.190Z,8.89
2022-11-29T02:18:12.150Z,8.92
2022-11-29T02:21:03.826Z,8.76
2022-11-29T02:24:07.465Z,8.69
2022-11-29T02:27:14.154Z,8.62
2022-11-29T02:30:07.904Z,8.65
2022-11-29T02:33:03.585Z,8.66
2022-11-29T02:35:49.782Z,8.57
2022-11-29T02:38:34.111Z,8.54
2022-11-29T02:41:19.832Z,8.48
2022-11-29T02:44:03.919Z,8.41
2022-11-29T02:46:52.702Z,8.58
2022-11-29T02:49:32.528Z,8.73
2022-11-29T02:52:02.994Z,8.65
2022-11-29T02:54:39.784Z,8.69
2022-11-29T02:57:20.474Z,8.83
2022-11-29T02:59:55.924Z,8.64
2022-11-29T03:02:32.648Z,8.52
2022-11-29T03:05:10.666Z,8.78
2022-11-29T03:07:46.166Z,8.81
2022-11-29T03:10:24.434Z,8.79
2022-11-29T03:12:54.740Z,8.76
2022-11-29T03:15:30.002Z,8.75
2022-11-29T03:18:09.850Z,8.67
2022-11-29T03:20:55.061Z,8.77
2022-11-29T03:23:26.747Z,8.71
2022-11-29T03:26:00.369Z,8.62
2022-11-29T03:28:32.260Z,8.58
2022-11-29T03:31:07.843Z,8.57
2022-11-29T03:33:42.747Z,8.55
2022-11-29T03:36:19.059Z,8.63
2022-11-29T03:38:48.524Z,8.61
2022-11-29T03:41:26.261Z,8.78
2022-11-29T03:44:00.649Z,8.75
2022-11-29T03:46:33.030Z,8.52
2022-11-29T03:49:04.680Z,8.65
2022-11-29T03:51:44.816Z,8.65
2022-11-29T03:54:17.561Z,8.56
2022-11-29T03:56:45.756Z,8.54
2022-11-29T03:59:41.624Z,8.75
2022-11-29T04:02:34.722Z,8.87
2022-11-29T04:05:30.360Z,8.81
2022-11-29T04:08:08.854Z,8.71
2022-11-29T04:10:58.164Z,8.54
2022-11-29T04:14:11.762Z,8.76
2022-11-29T04:17:19.069Z,8.82
2022-11-29T04:20:36.277Z,8.75
2022-11-29T04:23:38.827Z,8.72
2022-11-29T04:26:41.166Z,8.65
2022-11-29T04:29:16.573Z,8.67
2022-11-29T04:32:02.649Z,8.81
2022-11-29T04:34:51.261Z,8.83
2022-11-29T04:37:48.077Z,8.81
2022-11-29T04:40:33.059Z,8.78
2022-11-29T04:43:31.335Z,8.75
2022-11-29T04:46:32.886Z,8.67
2022-11-29T04:49:16.760Z,8.64
2022-11-29T04:52:01.605Z,8.58
2022-11-29T04:54:36.653Z,8.60
2022-11-29T04:57:12.528Z,8.72
2022-11-29T04:59:47.027Z,8.67
2022-11-29T05:02:27.760Z,8.80
2022-11-29T05:05:05.021Z,8.66
2022-11-29T05:07:40.419Z,8.76
2022-11-29T05:10:25.372Z,8.77
2022-11-29T05:13:04.884Z,8.79
2022-11-29T05:16:09.702Z,8.81
2022-11-29T05:19:07.588Z,8.73
2022-11-29T05:21:49.526Z,8.69
2022-11-29T05:24:29.950Z,8.66
2022-11-29T05:27:07.952Z,8.60
2022-11-29T05:29:42.959Z,8.55
2022-11-29T05:32:26.948Z,8.52
2022-11-29T05:35:20.428Z,8.51
2022-11-29T05:37:51.473Z,8.45
2022-11-29T05:40:37.220Z,8.49
2022-11-29T05:43:19.703Z,8.54
2022-11-29T05:45:56.592Z,8.53
2022-11-29T05:48:32.479Z,8.54
2022-11-29T05:51:12.350Z,8.47
2022-11-29T05:53:46.956Z,8.43
2022-11-29T05:56:30.091Z,8.40
2022-11-29T05:59:02.064Z,8.40
2022-11-29T06:01:36.189Z,8.45
2022-11-29T06:04:14.582Z,8.37
2022-11-29T06:06:48.737Z,8.37
2022-11-29T06:09:22.960Z,8.32
2022-11-29T06:11:56.632Z,8.43
2022-11-29T06:14:55.416Z,8.45
2022-11-29T06:17:43.157Z,8.45
2022-11-29T06:20:27.762Z,8.47
2022-11-29T06:23:28.959Z,8.33
2022-11-29T06:26:11.948Z,8.46
2022-11-29T06:28:55.725Z,8.52
2022-11-29T06:31:28.331Z,8.51
2022-11-29T06:34:07.403Z,8.53
2022-11-29T06:36:41.056Z,8.44
2022-11-29T06:39:10.861Z,8.39
2022-11-29T06:41:38.735Z,8.43
2022-11-29T06:44:07.389Z,8.50
2022-11-29T06:46:45.687Z,8.51
2022-11-29T06:49:23.495Z,8.40
2022-11-29T06:52:03.592Z,8.36
2022-11-29T06:54:43.197Z,8.35
2022-11-29T06:57:19.678Z,8.35
2022-11-29T07:00:02.405Z,8.35
2022-11-29T07:02:45.612Z,8.33
2022-11-29T07:05:24.748Z,8.29
2022-11-29T07:07:55.077Z,8.25
2022-11-29T07:10:23.900Z,8.17
2022-11-29T07:12:52.494Z,8.12
2022-11-29T07:15:22.592Z,8.09
2022-11-29T07:18:03.276Z,8.11
2022-11-29T07:20:40.395Z,8.13
2022-11-29T07:23:17.519Z,8.11
2022-11-29T07:25:56.882Z,8.08
2022-11-29T07:28:36.073Z,8.13
2022-11-29T07:31:10.480Z,8.19
2022-11-29T07:33:49.526Z,8.21
2022-11-29T07:36:28.170Z,8.26
2022-11-29T07:39:04.628Z,8.15
2022-11-29T07:41:43.349Z,8.04
2022-11-29T07:44:18.571Z,8.02
2022-11-29T07:46:46.281Z,8.16
2022-11-29T07:49:13.937Z,8.23
2022-11-29T07:51:43.064Z,8.22
2022-11-29T07:54:11.699Z,8.07
2022-11-29T07:56:39.310Z,8.01
2022-11-29T07:59:10.950Z,8.04
2022-11-29T08:01:38.597Z,8.05
2022-11-29T08:04:06.851Z,8.10
2022-11-29T08:06:35.145Z,8.05
2022-11-29T08:09:06.807Z,8.20
2022-11-29T08:11:34.675Z,8.30
2022-11-29T08:14:03.632Z,8.30
2022-11-29T08:16:31.330Z,8.35
2022-11-29T08:18:59.135Z,8.40
2022-11-29T08:21:27.201Z,8.44
2022-11-29T08:23:54.913Z,8.24
2022-11-29T08:26:28.229Z,8.19
2022-11-29T08:28:59.019Z,8.16
2022-11-29T08:31:26.704Z,8.18
2022-11-29T08:33:54.298Z,8.18
2022-11-29T08:36:22.380Z,8.20
2022-11-29T08:38:52.831Z,8.18
2022-11-29T08:41:26.211Z,8.24
2022-11-29T08:43:53.835Z,8.18
2022-11-29T08:46:21.436Z,8.03
2022-11-29T08:48:49.563Z,7.91
2022-11-29T08:51:17.239Z,7.96
2022-11-29T08:53:45.994Z,8.01
2022-11-29T08:57:04.521Z,8.06
2022-11-29T08:59:04.853Z,8.11
2022-11-29T09:01:32.581Z,8.05
2022-11-29T09:04:07.820Z,8.29
2022-11-29T09:06:39.371Z,8.36
2022-11-29T09:09:07.455Z,8.43
2022-11-29T09:11:37.091Z,8.48
2022-11-29T09:14:08.179Z,8.46
2022-11-29T09:16:38.298Z,8.40
2022-11-29T09:19:06.687Z,8.44
2022-11-29T09:21:36.662Z,8.48
2022-11-29T09:24:06.420Z,8.55
2022-11-29T09:26:35.724Z,8.51
2022-11-29T09:29:06.768Z,8.53
2022-11-29T09:31:35.200Z,8.51
2022-11-29T09:34:03.146Z,8.62
2022-11-29T09:36:30.957Z,8.65
2022-11-29T09:38:59.072Z,8.65
2022-11-29T09:42:09.823Z,8.58
2022-11-29T09:44:50.497Z,8.47
2022-11-29T09:47:32.874Z,8.44
2022-11-29T09:50:17.700Z,8.71
2022-11-29T09:52:52.085Z,8.77
2022-11-29T09:55:39.238Z,8.60
2022-11-29T09:58:11.547Z,8.63
2022-11-29T10:00:51.220Z,8.73
2022-11-29T10:03:25.373Z,8.75
2022-11-29T10:05:58.329Z,8.70
2022-11-29T10:08:32.546Z,8.57
2022-11-29T10:11:15.255Z,8.48
2022-11-29T10:13:48.351Z,8.52
2022-11-29T10:16:24.966Z,8.51
2022-11-29T10:18:59.472Z,8.48
2022-11-29T10:21:34.038Z,8.49
2022-11-29T10:24:05.568Z,8.49
2022-11-29T10:26:35.518Z,8.50
2022-11-29T10:29:03.598Z,8.46
2022-11-29T10:31:40.118Z,8.42
2022-11-29T10:34:14.120Z,8.39
2022-11-29T10:36:45.064Z,8.35
2022-11-29T10:39:17.143Z,8.31
2022-11-29T10:41:45.239Z,8.30
2022-11-29T10:44:15.434Z,8.30
2022-11-29T10:46:44.433Z,8.24
2022-11-29T10:49:16.001Z,8.06
2022-11-29T10:51:43.971Z,8.31
2022-11-29T10:54:26.480Z,8.37
2022-11-29T10:56:56.737Z,8.34
2022-11-29T10:59:25.958Z,8.27
2022-11-29T11:01:55.798Z,8.25
2022-11-29T11:04:29.190Z,8.22
2022-11-29T11:07:01.027Z,8.26
2022-11-29T11:09:37.363Z,8.39
2022-11-29T11:12:08.032Z,8.39
2022-11-29T11:14:38.631Z,8.37
2022-11-29T11:17:26.046Z,8.16
2022-11-29T11:20:00.761Z,8.08
2022-11-29T11:22:29.929Z,8.10
2022-11-29T11:25:00.683Z,8.54
2022-11-29T11:27:33.773Z,8.55
2022-11-29T11:30:02.843Z,8.52
2022-11-29T11:32:31.860Z,8.53
2022-11-29T11:35:01.178Z,8.59
2022-11-29T11:37:30.617Z,8.59
2022-11-29T11:40:00.670Z,8.58
2022-11-29T11:42:39.378Z,8.68
2022-11-29T11:45:26.655Z,8.62
2022-11-29T11:47:58.642Z,8.61
2022-11-29T11:50:30.299Z,8.59
2022-11-29T11:52:59.479Z,8.60
2022-11-29T11:55:32.269Z,8.59
2022-11-29T11:58:10.367Z,8.43
2022-11-29T12:01:03.353Z,8.28
2022-11-29T12:03:50.917Z,8.16
2022-11-29T12:06:30.145Z,8.11
2022-11-29T12:09:04.693Z,8.08
2022-11-29T12:11:39.095Z,8.09
2022-11-29T12:14:09.007Z,8.09
2022-11-29T12:16:40.211Z,8.09
2022-11-29T12:19:24.482Z,8.09
2022-11-29T12:21:55.971Z,8.21
2022-11-29T12:24:30.454Z,8.53
2022-11-29T12:27:04.412Z,8.40
2022-11-29T12:29:34.731Z,8.34
2022-11-29T12:32:15.602Z,8.59
2022-11-29T12:35:00.762Z,8.53
2022-11-29T12:37:36.165Z,8.64
2022-11-29T12:40:07.718Z,8.54
2022-11-29T12:42:50.192Z,8.47
2022-11-29T12:45:39.338Z,8.49
2022-11-29T12:48:17.311Z,8.40
2022-11-29T12:50:59.498Z,8.38
2022-11-29T12:53:45.866Z,8.38
2022-11-29T12:56:17.068Z,8.48
2022-11-29T12:58:57.316Z,8.44
2022-11-29T13:01:34.533Z,8.34
2022-11-29T13:04:13.115Z,8.30
2022-11-29T13:06:50.486Z,8.29
2022-11-29T13:09:33.903Z,8.28
2022-11-29T13:12:07.425Z,8.44
2022-11-29T13:14:44.277Z,8.68
2022-11-29T13:17:25.298Z,8.56
2022-11-29T13:19:57.098Z,8.47
2022-11-29T13:22:31.657Z,8.38
2022-11-29T13:25:02.927Z,8.35
2022-11-29T13:27:34.196Z,8.30
2022-11-29T13:30:02.522Z,8.27
2022-11-29T13:32:36.263Z,8.23
2022-11-29T13:35:09.556Z,8.23
2022-11-29T13:37:43.510Z,8.20
2022-11-29T13:40:24.635Z,8.21
2022-11-29T13:43:02.229Z,8.18
2022-11-29T13:45:38.513Z,8.20
2022-11-29T13:48:32.816Z,8.20
2022-11-29T13:51:30.760Z,8.26
2022-11-29T13:54:03.096Z,8.24
2022-11-29T13:56:36.707Z,8.20
2022-11-29T13:59:09.641Z,8.21
2022-11-29T14:01:51.471Z,8.21
2022-11-29T14:04:33.287Z,8.19
2022-11-29T14:07:11.251Z,8.43
2022-11-29T14:09:59.399Z,8.31
2022-11-29T14:12:37.644Z,8.27
2022-11-29T14:15:18.754Z,8.21
2022-11-29T14:17:52.438Z,8.18
2022-11-29T14:20:55.665Z,8.24
2022-11-29T14:23:43.816Z,8.26
2022-11-29T14:26:31.403Z,8.19
2022-11-29T14:29:00.143Z,8.19
2022-11-29T14:31:51.178Z,8.21
2022-11-29T14:34:46.830Z,8.19
2022-11-29T14:37:48.441Z,8.16
2022-11-29T14:40:30.011Z,8.23
2022-11-29T14:42:59.356Z,8.20
2022-11-29T14:45:29.983Z,8.17
2022-11-29T14:47:59.273Z,8.21
2022-11-29T14:50:33.283Z,8.13
2022-11-29T14:53:01.978Z,8.09
2022-11-29T14:55:36.799Z,8.08
2022-11-29T14:58:20.904Z,8.01
2022-11-29T15:01:09.515Z,7.99
2022-11-29T15:03:43.491Z,8.01
2022-11-29T15:06:16.185Z,7.98
2022-11-29T15:08:55.077Z,7.97
2022-11-29T15:11:32.887Z,7.96
2022-11-29T15:14:05.906Z,8.03
2022-11-29T15:16:45.557Z,7.99
2022-11-29T15:19:46.406Z,7.98
2022-11-29T15:22:18.752Z,7.95
2022-11-29T15:24:54.850Z,7.96
2022-11-29T15:27:22.959Z,7.93
2022-11-29T15:29:52.773Z,7.91
2022-11-29T15:32:26.786Z,7.91
2022-11-29T15:34:56.850Z,7.91
2022-11-29T15:37:39.734Z,7.88
2022-11-29T15:40:12.720Z,8.00
2022-11-29T15:42:43.430Z,7.94
2022-11-29T15:45:31.546Z,7.91
2022-11-29T15:48:14.479Z,7.86
2022-11-29T15:50:47.458Z,7.82
2022-11-29T15:53:19.519Z,7.78
2022-11-29T15:55:49.531Z,7.77
2022-11-29T15:58:18.421Z,7.77
2022-11-29T16:00:50.470Z,7.76
2022-11-29T16:03:25.144Z,7.74
2022-11-29T16:06:01.114Z,7.74
2022-11-29T16:08:32.557Z,7.72
2022-11-29T16:11:01.413Z,7.70
2022-11-29T16:13:37.665Z,7.69
2022-11-29T16:16:15.729Z,7.66
2022-11-29T16:18:45.906Z,7.68
2022-11-29T16:21:26.124Z,7.67
2022-11-29T16:23:54.605Z,7.64
2022-11-29T16:26:27.467Z,7.64
2022-11-29T16:28:57.845Z,7.60
2022-11-29T16:31:34.260Z,7.57
2022-11-29T16:34:08.974Z,7.58
2022-11-29T16:36:40.448Z,7.56
2022-11-29T16:39:17.409Z,7.73
2022-11-29T16:41:45.083Z,7.70
2022-11-29T16:45:00.795Z,7.69
2022-11-29T16:47:31.468Z,7.66
2022-11-29T16:50:15.193Z,7.66
2022-11-29T16:52:43.295Z,7.61
2022-11-29T16:55:10.961Z,7.60
2022-11-29T16:57:39.156Z,7.61
2022-11-29T17:00:22.449Z,7.60
2022-11-29T17:02:51.542Z,7.55
2022-11-29T17:05:19.152Z,7.53
2022-11-29T17:07:47.344Z,7.52
2022-11-29T17:10:19.688Z,7.48
2022-11-29T17:12:48.434Z,7.48
2022-11-29T17:15:16.534Z,7.56
2022-11-29T17:17:44.439Z,7.54
2022-11-29T17:20:14.467Z,7.50
2022-11-29T17:22:42.505Z,7.66
2022-11-29T17:25:13.419Z,7.57
2022-11-29T17:27:41.553Z,7.51
2022-11-29T17:30:11.376Z,7.44
2022-11-29T17:32:39.170Z,7.41
2022-11-29T17:35:09.146Z,7.38
2022-11-29T17:37:59.653Z,7.34
2022-11-29T17:40:27.393Z,7.34
2022-11-29T17:43:45.833Z,7.31
2022-11-29T17:46:15.810Z,7.32
2022-11-29T17:49:01.317Z,7.27
2022-11-29T17:54:18.201Z,7.30
2022-11-29T17:56:45.989Z,7.30
2022-11-29T17:59:13.813Z,7.27
2022-11-29T18:05:12.811Z,7.27
2022-11-29T18:08:19.927Z,7.27
2022-11-29T18:11:20.067Z,7.27
2022-11-29T18:14:06.227Z,7.25
2022-11-29T18:28:04.292Z,7.31
2022-11-29T18:30:32.008Z,7.41
2022-11-29T18:32:59.787Z,7.67
2022-11-29T18:35:28.006Z,8.15
2022-11-29T18:38:14.853Z,7.91
2022-11-29T18:40:45.532Z,7.77
2022-11-29T18:43:17.654Z,7.79
2022-11-29T18:45:45.568Z,7.66
2022-11-29T18:48:13.226Z,7.78
2022-11-29T18:50:40.842Z,7.66
2022-11-29T18:53:08.469Z,7.62
2022-11-29T18:55:37.883Z,7.59
2022-11-29T18:58:07.902Z,7.63
2022-11-29T19:00:36.868Z,7.56
2022-11-29T19:03:04.740Z,7.51
2022-11-29T19:05:32.357Z,7.46
2022-11-29T19:08:00.023Z,7.40
2022-11-29T19:10:27.736Z,7.51
2022-11-29T19:12:55.683Z,7.51
2022-11-29T19:15:23.262Z,7.47
2022-11-29T19:17:52.243Z,7.42
2022-11-29T19:20:48.340Z,7.44
2022-11-29T19:23:24.458Z,7.61
2022-11-29T19:25:54.871Z,7.77
2022-11-29T19:28:35.062Z,7.64
2022-11-29T19:31:12.252Z,7.52
2022-11-29T19:33:46.980Z,7.46
2022-11-29T19:36:34.709Z,7.39
2022-11-29T19:39:17.982Z,7.35
2022-11-29T19:41:54.044Z,7.44
2022-11-29T19:44:48.326Z,7.39
2022-11-29T19:47:20.431Z,7.35
2022-11-29T19:49:49.696Z,7.31
2022-11-29T19:52:17.576Z,7.31
2022-11-29T19:54:45.178Z,7.31
2022-11-29T19:57:16.971Z,7.28
2022-11-29T19:59:47.801Z,7.30
2022-11-29T20:02:18.128Z,7.35
2022-11-29T20:04:49.020Z,7.36
2022-11-29T20:07:19.974Z,7.32
2022-11-29T20:09:49.897Z,7.32
2022-11-29T20:12:26.611Z,7.28
2022-11-29T20:14:54.241Z,7.24
2022-11-29T20:17:26.425Z,7.21
2022-11-29T20:19:54.203Z,7.22
2022-11-29T20:22:23.248Z,7.23
2022-11-29T20:24:50.989Z,7.19
2022-11-29T20:27:23.836Z,7.18
2022-11-29T20:29:51.463Z,7.14
2022-11-29T20:32:20.037Z,7.14
2022-11-29T20:34:48.406Z,7.16
2022-11-29T20:37:44.252Z,7.23
2022-11-29T20:40:16.903Z,7.18
2022-11-29T20:43:04.257Z,7.15
2022-11-29T20:45:32.392Z,7.11
2022-11-29T20:48:05.500Z,7.12
2022-11-29T20:50:33.900Z,7.31
2022-11-29T20:53:15.578Z,7.22
2022-11-29T20:55:47.889Z,7.14
2022-11-29T20:58:16.096Z,7.11
2022-11-29T21:00:45.805Z,7.08
2022-11-29T21:03:16.043Z,7.06
2022-11-29T21:05:43.759Z,7.04
2022-11-29T21:08:14.055Z,7.00
2022-11-29T21:10:41.768Z,6.98
2022-11-29T21:13:10.964Z,6.98
2022-11-29T21:15:39.044Z,6.96
2022-11-29T21:18:07.459Z,6.93
2022-11-29T21:20:35.590Z,6.99
2022-11-29T21:23:10.022Z,6.97
2022-11-29T21:25:50.703Z,6.93
2022-11-29T21:28:18.838Z,6.91
2022-11-29T21:30:46.947Z,6.87
2022-11-29T21:33:15.820Z,6.85
2022-11-29T21:35:43.461Z,6.85
2022-11-29T21:38:14.247Z,6.83
2022-11-29T21:40:43.321Z,6.85
2022-11-29T21:43:10.930Z,6.85
2022-11-29T21:45:38.542Z,6.81
2022-11-29T21:48:27.502Z,6.81
2022-11-29T21:51:08.748Z,6.76
2022-11-29T21:53:37.990Z,6.78
2022-11-29T21:56:09.796Z,6.77
2022-11-29T21:58:39.279Z,6.80
2022-11-29T22:01:09.204Z,6.80
2022-11-29T22:03:36.870Z,6.80
2022-11-29T22:06:05.768Z,6.76
2022-11-29T22:08:38.813Z,6.72
2022-11-29T22:11:09.205Z,6.68
2022-11-29T22:13:37.125Z,6.71
2022-11-29T22:16:07.097Z,6.66
2022-11-29T22:18:35.026Z,6.77
2022-11-29T22:21:04.075Z,6.73
2022-11-29T22:23:31.887Z,7.16
2022-11-29T22:26:08.736Z,7.20
2022-11-29T22:28:36.923Z,7.02
2022-11-29T22:31:07.275Z,6.86
2022-11-29T22:33:44.114Z,6.86
2022-11-29T22:36:18.924Z,6.72
2022-11-29T22:38:50.153Z,6.88
2022-11-29T22:41:22.136Z,6.83
2022-11-29T22:44:01.679Z,6.76
2022-11-29T22:46:30.464Z,6.68
2022-11-29T22:49:02.267Z,6.74
2022-11-29T22:51:33.075Z,6.62
2022-11-29T22:54:04.320Z,6.72
2022-11-29T22:56:36.276Z,6.59
2022-11-29T23:02:47.798Z,6.63
2022-11-29T23:05:15.527Z,6.65
2022-11-29T23:07:43.196Z,6.62
2022-11-29T23:10:11.707Z,6.49
2022-11-29T23:12:40.692Z,6.42
2022-11-29T23:15:08.670Z,6.34
2022-11-29T23:17:36.288Z,6.33
2022-11-29T23:20:05.215Z,6.29
2022-11-29T23:22:32.887Z,6.27
2022-11-29T23:25:00.469Z,6.39
2022-11-29T23:27:28.145Z,6.77
2022-11-29T23:29:57.086Z,6.56
2022-11-29T23:32:24.709Z,6.74
2022-11-29T23:34:52.345Z,7.07
2022-11-29T23:37:19.961Z,6.88
2022-11-29T23:39:47.597Z,6.90
2022-11-29T23:42:15.441Z,6.94
2022-11-29T23:44:43.046Z,6.92
2022-11-29T23:47:11.974Z,6.78
2022-11-29T23:49:39.836Z,6.70
2022-11-29T23:52:07.520Z,6.75
2022-11-29T23:54:35.110Z,6.73
2022-11-29T23:57:02.719Z,6.54
2022-11-29T23:59:30.329Z,6.39
